Yorkton Municipal Airport
CYQV : now visible

Airfield :











YOU CAN JOIN US ON...

 
LOGIN :

Register | Disclaimer

   EN    FR    IT 

 









Legend :    VFR   Marginal VFR   IFR   Intensive IFR   Very Intensive IFR
Visi :
Ceiling :
>= 8 km
>= 3000ft
5 to 8 km
1000 to 3000 ft
1500m to 5 km
500 to 1000 ft
800 to 1500m
200 to 500 ft
< 800m
< 200 ft
Symbols :   Thunderstorms  Fog  Heavy snow  Heavy precipitations  Wind > 20 kt







- Airport Elevation : 1635 ft
- IATA code : YQV


CYQV - Yorkton Municipal

CURRENT METAR :
  • 260400Z AUTO 31006KT 9SM -RA BKN100 BKN120 14/13 A2971 RMK SLP070 DENSITY ALT 2100FT

EXPIRED METARs :
  • 260357Z AUTO 31006KT 9SM -RA BKN100 BKN120 14/13 A2971 RMK SLP070 DENSITY ALT 2100FT
  • 260300Z AUTO 33010G16KT 6SM RA BR FEW034 BKN048 BKN055 OVC080 14/13 A2973 RMK SLP077 DENSITY ALT 2100FT
  • 260244Z AUTO 33007KT 8SM -RA BKN034 BKN055 OVC069 15/14 A2973 RMK SLP076 DENSITY ALT 2200FT
  • 260224Z AUTO 30008KT 260V350 9SM -TSRA SCT034 BKN048 BKN085 OVC160 15/14 A2970 RMK SLP066 DENSITY ALT 2200FT
  • 260200Z AUTO 28007KT 9SM SCT090 SCT110 BKN130 BKN160 15/14 A2969 RMK LTNG DIST N SLP060 DENSITY ALT 2300FT
  • 260149Z AUTO 27008KT 9SM BKN090 BKN130 BKN160 16/14 A2969 RMK LTNG DIST N SLP061 DENSITY ALT 2300FT

TAF TAF CYQV
Valid from the 26 at 00:00 until the 26 at 06:00 UTC


252338Z 2600/2606 32015KT P6SM SCT020 BKN040
TEMPO 2600/2606 P6SM -SHRA VCTS BKN020 BKN040CB RMK FCST BASED ON AUTO OBS. NXT FCST WILL BE ISSUED AT 261145Z
No reported NOTAMs for that airfield.



MET'MAP, your aeronautical weather chart ! - Copyright ORBIFLY December 2007 - Disclaimer

ORBIFLY MET'MAP TEAM :

Programming & Development : Alexandra Zaïnal
Concept & Development : Baudouin d'Aumeries
Co-Development & Prog : Marc-Olivier Méhu
Technical & hardware support : Manuel Goepfert

Contact : metmap@orbifly.com




SOURCES & CREDITS :

   NOAA       Earth
Advisory